Ozark Regional Airport Mountain Home US
ICAO: KBPK
IATA: WMH
Category: Medium
Scheduled Services: No

Elevation: 928 ft
TransAlt. 18000 ft.

Airport Communications:
ASOS:133.975
MEMPHIS CNTR:126.85
CTAF/UNICOM:123

KBPK Zoom In..

If you have problems with the map follow the link
https://www.worldairports.se/pages/airport.php?
ICAO=KBPK

Runways:

(A) RW 05 length 5001 ft width 75 ft
ILS 111.95 / hdg 49

(B) RW 23 length 5001 ft width 75 ft
---- / hdg 229

Location; KBPK
Day. 19 / Time. 20.53 Zulu
* Altimeter: 30.37
* Temperature: 10° c. 50°f.
* Wind from: 090° Speed 08 kn.
Dewpoint: -07° c.
Visibility: 10 Statute Miles.
Clouds: Clear (automated report).

KBPK 192053Z AUTO 09008KT 10SM CLR 10/M07 A3037 RMK AO2 SLP288 T01001067 56030


Wind From 090°
Speed 08 kn.

 
 
jpsmedia worldairports.se 2020   terms of use